Time;durP1;ratioP1;P1;durP2;ratioP2;P2;SDS_P1;SDS_P2;PMS_P1;PMS_P2;Temp;Humidity;BMP_temperature;BMP_pressure;BME280_temperature;BME280_humidity;BME280_pressure;Samples;Min_cycle;Max_cycle;Signal;HPM_P1;HPM_P2
2021/11/08 00:18:26;;;;;;;5.10;4.60;;;;;;;6.94;100.00;99962.75;21038461;27;20574;-57
2021/11/08 00:38:29;;;;;;;8.70;5.60;;;;;;;7.18;100.00;99963.19;20984103;27;20597;-57
2021/11/08 00:48:35;;;;;;;8.13;5.10;;;;;;;7.23;100.00;99958.50;21052948;27;20235;-57
2021/11/08 01:18:35;;;;;;;7.20;5.20;;;;;;;7.34;100.00;100001.22;21061610;27;20627;-59
2021/11/08 01:38:38;;;;;;;5.37;4.40;;;;;;;7.53;100.00;99999.22;21061840;27;20624;-56
2021/11/08 01:58:39;;;;;;;9.20;6.00;;;;;;;7.45;100.00;99998.81;21061011;27;20591;-58
2021/11/08 02:18:41;;;;;;;7.60;5.70;;;;;;;7.40;100.00;100014.13;20980254;27;21133;-58
2021/11/08 02:28:48;;;;;;;8.47;5.37;;;;;;;7.52;100.00;100021.41;20973432;28;20321;-58
2021/11/08 02:38:54;;;;;;;7.63;5.60;;;;;;;7.56;100.00;100009.66;20972622;28;20279;-55
2021/11/08 02:49:01;;;;;;;7.00;5.50;;;;;;;7.55;100.00;100018.56;21046279;27;20788;-54
2021/11/08 03:09:08;;;;;;;6.53;5.00;;;;;;;7.70;100.00;100050.53;21226617;27;20570;-56
2021/11/08 03:39:14;;;;;;;5.53;5.00;;;;;;;7.65;100.00;100077.31;21216832;27;20565;-59
2021/11/08 03:49:18;;;;;;;7.60;5.73;;;;;;;7.68;100.00;100092.25;21225382;27;20226;-58
2021/11/08 03:59:23;;;;;;;7.30;5.33;;;;;;;7.71;100.00;100094.72;21206653;27;20227;-57
2021/11/08 04:09:27;;;;;;;7.23;5.87;;;;;;;7.68;100.00;100092.25;21223878;27;20292;-57
2021/11/08 04:19:33;;;;;;;7.77;5.90;;;;;;;7.64;100.00;100098.66;21223166;27;20254;-57
2021/11/08 04:29:38;;;;;;;6.33;5.73;;;;;;;7.72;100.00;100115.91;21222004;27;20289;-57
2021/11/08 04:39:59;;;;;;;6.07;5.33;;;;;;;7.75;100.00;100125.47;21221475;27;20618;-59
2021/11/08 04:50:14;;;;;;;7.87;5.87;;;;;;;7.67;100.00;100130.34;21166301;27;20228;-58
2021/11/08 05:21:37;;;;;;;6.70;5.83;;;;;;;7.57;100.00;100122.06;21077319;27;20250;-57
2021/11/08 05:31:41;;;;;;;6.63;5.37;;;;;;;7.50;100.00;100156.03;21076108;27;20638;-58
2021/11/08 05:51:45;;;;;;;5.47;4.60;;;;;;;7.65;100.00;100169.41;20990537;27;21096;-57
2021/11/08 07:03:32;;;;;;;12.80;5.67;;;;;;;8.05;100.00;100259.28;21147122;27;20565;-60
2021/11/08 07:13:35;;;;;;;10.27;5.00;;;;;;;8.02;100.00;100264.75;21141853;28;20244;-59
2021/11/08 07:23:41;;;;;;;9.13;6.07;;;;;;;8.06;100.00;100271.63;21141075;28;20217;-59
2021/11/08 07:33:44;;;;;;;6.37;4.57;;;;;;;8.19;100.00;100285.97;21155839;27;20241;-60
2021/11/08 07:43:50;;;;;;;6.50;4.80;;;;;;;8.21;100.00;100297.34;21139414;28;20221;-62
2021/11/08 07:53:53;;;;;;;8.47;4.90;;;;;;;8.11;100.00;100314.75;21138433;28;20237;-60
2021/11/08 08:03:58;;;;;;;6.57;4.80;;;;;;;8.16;100.00;100310.06;21136773;28;20228;-59
2021/11/08 08:24:01;;;;;;;7.67;5.70;;;;;;;8.29;100.00;100335.03;21143839;27;20587;-59
2021/11/08 08:34:06;;;;;;;8.70;6.07;;;;;;;8.24;100.00;100338.88;21141411;28;20330;-59
2021/11/08 08:44:13;;;;;;;6.57;5.97;;;;;;;8.18;100.00;100345.38;21141375;28;20239;-60
2021/11/08 08:54:17;;;;;;;10.13;6.60;;;;;;;8.22;100.00;100367.31;21139972;28;20227;-59
2021/11/08 09:04:22;;;;;;;9.23;6.80;;;;;;;8.01;100.00;100364.03;21139576;28;20710;-61
2021/11/08 09:14:27;;;;;;;8.00;7.20;;;;;;;8.11;100.00;100383.84;21138711;28;20229;-61
2021/11/08 09:24:32;;;;;;;8.60;6.57;;;;;;;8.30;100.00;100397.03;21138207;28;20218;-60
2021/11/08 09:34:40;;;;;;;6.70;6.00;;;;;;;8.30;100.00;100402.34;21084994;28;20233;-59
2021/11/08 09:44:45;;;;;;;6.70;6.10;;;;;;;8.33;100.00;100422.63;21080313;28;20644;-59
2021/11/08 09:54:49;;;;;;;8.53;7.50;;;;;;;8.26;100.00;100414.94;21060987;28;20231;-59
2021/11/08 10:14:50;;;;;;;8.23;7.07;;;;;;;8.58;100.00;100436.31;21062257;27;21169;-60
2021/11/08 10:25:00;;;;;;;7.47;6.20;;;;;;;8.86;100.00;100460.47;21057493;28;20218;-61
2021/11/08 10:35:09;;;;;;;5.90;5.30;;;;;;;8.90;100.00;100456.72;21056354;28;20226;-61
2021/11/08 10:45:21;;;;;;;4.93;4.43;;;;;;;8.89;100.00;100452.31;21055780;28;20233;-60
2021/11/08 10:55:30;;;;;;;4.47;4.07;;;;;;;8.78;100.00;100460.03;21054915;28;20319;-64
2021/11/08 11:05:41;;;;;;;4.53;4.13;;;;;;;8.90;100.00;100461.19;21054254;28;20222;-62
2021/11/08 11:15:47;;;;;;;5.13;4.73;;;;;;;8.88;100.00;100469.25;21053713;28;20217;-59
2021/11/08 11:25:53;;;;;;;5.00;4.70;;;;;;;9.19;100.00;100465.72;20998817;28;20782;-60
2021/11/08 11:36:05;;;;;;;6.20;5.67;;;;;;;9.07;100.00;100462.88;20996421;28;20234;-59
2021/11/08 12:06:04;;;;;;;7.73;6.87;;;;;;;8.94;100.00;100490.19;20974771;28;20568;-63
2021/11/08 12:16:13;;;;;;;7.83;7.03;;;;;;;8.93;100.00;100499.13;20973940;28;20215;-61
2021/11/08 12:26:20;;;;;;;7.60;6.93;;;;;;;9.21;100.00;100505.56;20972844;28;20257;-60
2021/11/08 12:36:23;;;;;;;7.50;6.80;;;;;;;8.90;100.00;100509.09;20972006;28;20333;-61
2021/11/08 12:46:35;;;;;;;8.20;7.40;;;;;;;9.00;100.00;100513.81;20987050;28;20259;-60
2021/11/08 12:56:44;;;;;;;8.23;7.47;;;;;;;9.14;100.00;100522.84;20970104;28;20223;-62
2021/11/08 13:06:49;;;;;;;8.63;7.83;;;;;;;9.14;100.00;100523.72;20969884;28;20700;-61
2021/11/08 13:17:08;;;;;;;8.13;7.37;;;;;;;8.96;100.00;100530.88;20916809;28;20234;-60
2021/11/08 13:37:09;;;;;;;8.80;7.73;;;;;;;8.95;100.00;100553.13;20990250;27;20629;-60
2021/11/08 13:47:12;;;;;;;7.50;6.73;;;;;;;9.09;100.00;100548.84;21050753;27;20222;-62
2021/11/08 13:57:18;;;;;;;8.03;7.30;;;;;;;9.15;100.00;100561.84;21055729;27;20218;-59
2021/11/08 14:07:23;;;;;;;10.17;7.93;;;;;;;9.03;100.00;100564.22;21056095;27;20255;-60
2021/11/08 14:17:30;;;;;;;9.13;8.30;;;;;;;8.98;100.00;100568.94;21054488;27;20226;-61
2021/11/08 14:27:35;;;;;;;10.53;9.53;;;;;;;8.91;100.00;100574.66;21053830;27;20246;-62
2021/11/08 14:37:43;;;;;;;10.37;9.47;;;;;;;8.54;100.00;100575.75;21053558;27;20218;-65
2021/11/08 14:47:56;;;;;;;10.30;9.40;;;;;;;8.38;100.00;100566.81;21000829;27;20223;-59
2021/11/08 14:58:03;;;;;;;12.47;11.27;;;;;;;8.21;100.00;100589.75;20994823;28;20813;-59
2021/11/08 15:08:09;;;;;;;12.17;11.03;;;;;;;8.11;100.00;100607.13;20912315;28;21401;-60
2021/11/08 15:18:17;;;;;;;12.23;11.03;;;;;;;8.13;100.00;100618.53;20910614;28;20280;-59
2021/11/08 15:28:22;;;;;;;13.00;11.77;;;;;;;8.18;100.00;100619.19;20910341;28;20223;-58
2021/11/08 15:38:31;;;;;;;12.03;10.83;;;;;;;8.26;100.00;100640.91;20910146;28;20246;-59
2021/11/08 15:48:35;;;;;;;14.33;12.93;;;;;;;8.31;100.00;100654.00;20909711;28;20599;-58
2021/11/08 16:08:36;;;;;;;9.90;8.93;;;;;;;8.34;100.00;100671.59;20982073;27;20572;-60
2021/11/08 16:18:40;;;;;;;9.67;8.80;;;;;;;8.34;100.00;100688.41;20987134;27;20233;-59
2021/11/08 16:28:45;;;;;;;8.70;7.90;;;;;;;8.38;100.00;100697.13;21056267;27;20237;-59
2021/11/08 16:38:48;;;;;;;8.10;7.30;;;;;;;8.40;100.00;100708.53;21054507;27;20226;-59
2021/11/08 16:58:52;;;;;;;10.63;9.53;;;;;;;8.39;100.00;100730.75;21092938;27;20312;-60
2021/11/08 17:08:58;;;;;;;13.30;9.70;;;;;;;8.29;100.00;100736.50;21056111;28;20279;-60
2021/11/08 17:19:04;;;;;;;10.83;9.70;;;;;;;8.22;100.00;100744.81;21056162;27;20220;-64
2021/11/08 17:29:16;;;;;;;11.87;10.47;;;;;;;8.19;100.00;100759.16;21054869;27;20225;-61
2021/11/08 17:49:17;;;;;;;12.87;11.43;;;;;;;7.97;100.00;100777.00;21070649;27;20565;-64
2021/11/08 17:59:21;;;;;;;16.03;14.33;;;;;;;7.89;100.00;100785.34;21056647;27;20243;-63
2021/11/08 18:09:26;;;;;;;13.93;12.43;;;;;;;7.91;100.00;100794.09;21056261;27;20221;-64
2021/11/08 18:19:34;;;;;;;16.27;13.60;;;;;;;7.97;100.00;100806.25;21055133;27;20705;-64
2021/11/08 18:29:53;;;;;;;15.17;12.50;;;;;;;8.03;100.00;100816.59;21016792;27;21898;-58
2021/11/08 18:49:55;;;;;;;6.50;4.33;;;;;;;7.05;100.00;100864.28;20989967;27;20573;-60
2021/11/08 19:09:57;;;;;;;3.97;3.33;;;;;;;6.75;100.00;100898.22;20846525;27;21451;-70
2021/11/08 19:20:04;;;;;;;5.30;3.20;;;;;;;6.58;100.00;100904.16;20873025;28;20239;-64
2021/11/08 19:30:12;;;;;;;6.93;4.63;;;;;;;6.54;100.00;100921.13;20914557;28;20237;-64
2021/11/08 19:40:16;;;;;;;9.87;6.20;;;;;;;6.49;100.00;100933.69;20916830;28;20227;-64
2021/11/08 19:50:24;;;;;;;14.27;6.93;;;;;;;6.40;100.00;100949.97;20913830;28;20236;-67
2021/11/08 20:00:29;;;;;;;12.77;7.37;;;;;;;6.40;100.00;100973.81;20914977;28;20235;-58
2021/11/08 20:10:38;;;;;;;10.37;5.77;;;;;;;6.38;100.00;100988.91;20916541;28;21029;-57
2021/11/08 20:20:43;;;;;;;8.63;5.10;;;;;;;6.31;100.00;100979.41;20854726;28;20251;-64
2021/11/08 20:30:55;;;;;;;12.57;6.07;;;;;;;6.36;100.00;101006.66;20834407;28;20217;-64
2021/11/08 20:41:07;;;;;;;12.67;7.20;;;;;;;6.37;100.00;101018.97;20837881;28;20242;-57
2021/11/08 20:51:21;;;;;;;11.90;6.50;;;;;;;6.34;100.00;101014.66;20853265;28;20413;-59
2021/11/08 21:01:29;;;;;;;11.10;5.90;;;;;;;6.37;100.00;101025.16;20855191;28;20235;-62
2021/11/08 21:11:47;;;;;;;11.70;6.70;;;;;;;6.30;100.00;101030.69;20846756;28;20828;-60
2021/11/08 21:21:51;;;;;;;13.27;6.80;;;;;;;6.26;100.00;101052.97;20853383;28;20322;-57
2021/11/08 21:42:22;;;;;;;18.47;9.53;;;;;;;6.10;100.00;101064.06;20851470;28;20235;-57
2021/11/08 21:52:27;;;;;;;15.33;8.30;;;;;;;6.13;100.00;101071.06;20852308;28;20226;-60
2021/11/08 22:02:32;;;;;;;15.73;8.60;;;;;;;6.07;100.00;101111.88;20834128;28;20909;-58
2021/11/08 22:12:39;;;;;;;15.80;9.37;;;;;;;6.00;100.00;101118.28;20843941;28;20228;-60
2021/11/08 22:22:43;;;;;;;17.20;9.27;;;;;;;5.98;100.00;101130.72;20836838;28;20243;-57
2021/11/08 22:32:48;;;;;;;14.73;9.13;;;;;;;5.92;100.00;101146.78;20844520;28;20251;-62
2021/11/08 22:42:53;;;;;;;14.80;9.47;;;;;;;5.95;100.00;101149.34;20848848;28;20227;-60
2021/11/08 22:52:58;;;;;;;16.80;9.80;;;;;;;5.93;100.00;101159.13;20847045;28;20572;-65
2021/11/08 23:03:01;;;;;;;25.77;13.70;;;;;;;5.88;100.00;101179.63;20835653;28;20299;-65
2021/11/08 23:13:07;;;;;;;20.27;11.70;;;;;;;5.85;100.00;101195.56;20837563;28;20228;-63
2021/11/08 23:23:12;;;;;;;22.00;13.03;;;;;;;5.84;100.00;101209.72;20806945;28;20260;-57
2021/11/08 23:33:17;;;;;;;20.17;12.40;;;;;;;5.85;100.00;101222.06;20816335;28;20252;-55
2021/11/08 23:43:21;;;;;;;21.60;12.10;;;;;;;5.86;100.00;101228.22;20818240;28;20664;-58
2021/11/08 23:53:26;;;;;;;17.07;10.60;;;;;;;5.78;100.00;101236.41;20827262;28;20232;-58
